createdAt,value
2019-02-28T20:40:26.241Z,9.10
2019-02-28T20:41:26.225Z,11.10
2019-02-28T20:42:26.137Z,14.00
2019-02-28T20:43:26.208Z,14.90
2019-02-28T20:44:26.233Z,14.00
2019-02-28T20:45:26.209Z,14.80
2019-02-28T20:46:26.181Z,15.40
2019-02-28T20:47:26.108Z,14.00
2019-02-28T20:48:26.153Z,14.60
2019-02-28T20:49:26.109Z,13.90
2019-02-28T20:50:26.252Z,13.90
2019-02-28T20:51:26.096Z,14.90
2019-02-28T20:52:26.054Z,13.30
2019-02-28T20:53:26.072Z,14.40
2019-02-28T20:54:26.097Z,13.10
2019-02-28T20:55:26.034Z,12.60
2019-02-28T20:56:26.883Z,13.50
2019-02-28T20:57:25.999Z,13.00
2019-02-28T20:58:25.941Z,12.10
2019-02-28T20:59:26.031Z,11.90
2019-02-28T21:00:25.971Z,12.40
2019-02-28T21:01:26.033Z,11.50
2019-02-28T21:02:25.934Z,11.50
2019-02-28T21:03:26.043Z,10.00
2019-02-28T21:04:25.905Z,10.70
2019-02-28T21:05:25.874Z,11.00
2019-02-28T21:06:25.866Z,10.20
2019-02-28T21:07:25.890Z,10.90
2019-02-28T21:08:25.947Z,10.80
2019-02-28T21:09:26.011Z,10.20
2019-02-28T21:10:26.360Z,10.40
2019-02-28T21:11:25.906Z,9.70
2019-02-28T21:12:25.763Z,10.30
2019-02-28T21:13:25.757Z,9.40
2019-02-28T21:14:25.783Z,9.50
2019-02-28T21:15:25.731Z,10.00
2019-02-28T21:16:25.739Z,9.60
2019-02-28T21:17:29.413Z,9.80
2019-02-28T21:18:25.697Z,10.10
2019-02-28T21:19:25.692Z,9.60
2019-02-28T21:20:25.734Z,9.50
2019-02-28T21:21:25.696Z,9.40
2019-02-28T21:22:25.655Z,9.70
2019-02-28T21:23:25.643Z,9.40
2019-02-28T21:24:25.650Z,9.50
2019-02-28T21:25:25.677Z,9.10
2019-02-28T21:26:25.609Z,10.10
2019-02-28T21:27:25.653Z,9.40
2019-02-28T21:28:25.589Z,9.30
2019-02-28T21:29:25.578Z,9.20
2019-02-28T21:30:25.668Z,9.40
2019-02-28T21:31:25.566Z,11.40
2019-02-28T21:32:25.547Z,11.60
2019-02-28T21:33:25.541Z,11.90
2019-02-28T21:34:25.558Z,11.90
2019-02-28T21:35:25.531Z,11.70
2019-02-28T21:36:25.500Z,11.90
2019-02-28T21:37:25.525Z,11.90
2019-02-28T21:38:25.480Z,11.70
2019-02-28T21:39:25.497Z,11.30
2019-02-28T21:40:25.508Z,11.40
2019-02-28T21:41:25.450Z,10.30
2019-02-28T21:42:25.441Z,10.40
2019-02-28T21:43:25.459Z,9.50
2019-02-28T21:44:25.430Z,9.00
2019-02-28T21:45:25.421Z,8.00
2019-02-28T21:46:25.420Z,8.30
2019-02-28T21:47:25.382Z,8.10
2019-02-28T21:48:25.373Z,7.50
2019-02-28T21:49:25.360Z,8.00
2019-02-28T21:50:25.367Z,8.10
2019-02-28T21:51:25.359Z,7.80
2019-02-28T21:52:25.341Z,7.90
2019-02-28T21:53:25.327Z,7.90
2019-02-28T21:54:25.307Z,7.80
2019-02-28T21:55:25.294Z,7.60
2019-02-28T21:56:25.338Z,8.70
2019-02-28T21:57:25.323Z,9.00
2019-02-28T21:58:25.260Z,10.50
2019-02-28T21:59:25.309Z,12.20
2019-02-28T22:00:25.251Z,12.70
2019-02-28T22:01:25.252Z,12.40
2019-02-28T22:02:25.219Z,13.60
2019-02-28T22:03:25.209Z,13.60
2019-02-28T22:04:25.223Z,15.60
2019-02-28T22:05:25.217Z,15.90
2019-02-28T22:06:25.192Z,15.80
2019-02-28T22:07:25.169Z,17.10
2019-02-28T22:08:25.174Z,17.30
2019-02-28T22:09:25.142Z,17.60
2019-02-28T22:10:25.131Z,17.50
2019-02-28T22:11:25.148Z,17.10
2019-02-28T22:12:25.109Z,15.90
2019-02-28T22:13:25.100Z,16.20
2019-02-28T22:14:25.092Z,15.80
2019-02-28T22:15:25.078Z,14.70
2019-02-28T22:16:25.087Z,16.10
2019-02-28T22:17:25.064Z,14.50
2019-02-28T22:18:25.072Z,14.30
2019-02-28T22:19:25.034Z,12.40
2019-02-28T22:20:25.032Z,12.30
2019-02-28T22:21:25.013Z,12.10
2019-02-28T22:22:25.026Z,11.80
2019-02-28T22:23:24.992Z,10.00
2019-02-28T22:24:24.980Z,10.80
2019-02-28T22:25:24.969Z,10.30
2019-02-28T22:26:24.958Z,10.40
2019-02-28T22:27:24.964Z,10.20
2019-02-28T22:28:24.933Z,10.70
2019-02-28T22:29:24.931Z,10.20
2019-02-28T22:30:24.914Z,9.90
2019-02-28T22:31:32.127Z,8.90
2019-02-28T22:32:24.922Z,9.60
2019-02-28T22:33:24.920Z,8.60
2019-02-28T22:34:24.908Z,7.80
2019-02-28T22:35:24.858Z,8.50
2019-02-28T22:36:24.847Z,8.50
2019-02-28T22:37:24.884Z,8.20
2019-02-28T22:38:24.829Z,7.40
2019-02-28T22:39:24.837Z,7.70
2019-02-28T22:40:24.804Z,7.40
2019-02-28T22:41:24.796Z,5.80
2019-02-28T22:42:24.788Z,6.10
2019-02-28T22:43:24.841Z,6.20
2019-02-28T22:44:24.763Z,5.50
2019-02-28T22:45:24.751Z,5.70
2019-02-28T22:46:24.744Z,5.30
2019-02-28T22:47:24.728Z,4.80
2019-02-28T22:48:24.739Z,5.10
2019-02-28T22:49:24.740Z,5.20
2019-02-28T22:50:24.695Z,4.70
2019-02-28T22:51:24.691Z,5.10
2019-02-28T22:52:24.927Z,4.40
2019-02-28T22:53:24.685Z,4.40
2019-02-28T22:54:24.650Z,4.10
2019-02-28T22:55:24.648Z,4.20
2019-02-28T22:56:24.660Z,3.50
2019-02-28T22:57:24.624Z,3.80
2019-02-28T22:58:24.631Z,3.80
2019-02-28T22:59:24.598Z,4.10
2019-02-28T23:00:24.606Z,3.50
2019-02-28T23:01:24.582Z,3.90
2019-02-28T23:02:24.571Z,3.90
2019-02-28T23:03:24.601Z,3.50
2019-02-28T23:04:24.559Z,3.40
2019-02-28T23:05:24.536Z,3.30
2019-02-28T23:06:24.523Z,3.00
2019-02-28T23:07:24.509Z,3.60
2019-02-28T23:08:24.499Z,3.40
2019-02-28T23:09:24.513Z,3.10
2019-02-28T23:10:24.485Z,3.20
2019-02-28T23:11:24.469Z,2.90
2019-02-28T23:12:24.463Z,3.30
2019-02-28T23:13:24.453Z,3.10
2019-02-28T23:14:24.458Z,2.80
2019-02-28T23:15:24.433Z,2.90
2019-02-28T23:16:24.417Z,3.00
2019-02-28T23:17:24.400Z,3.60
2019-02-28T23:18:24.392Z,2.90
2019-02-28T23:19:24.412Z,3.00
2019-02-28T23:20:24.404Z,3.10
2019-02-28T23:21:24.360Z,2.70
2019-02-28T23:22:24.355Z,3.00
2019-02-28T23:23:24.336Z,3.10
2019-02-28T23:24:24.350Z,2.80
2019-02-28T23:25:24.341Z,2.40
2019-02-28T23:26:24.302Z,2.60
2019-02-28T23:27:24.303Z,2.80
2019-02-28T23:28:24.286Z,3.10
2019-02-28T23:29:24.285Z,2.90
2019-02-28T23:30:24.289Z,3.10
2019-02-28T23:31:24.250Z,3.40
2019-02-28T23:32:24.242Z,3.20
2019-02-28T23:33:24.228Z,3.40
2019-02-28T23:34:24.219Z,3.50
2019-02-28T23:35:24.234Z,3.20
2019-02-28T23:36:24.225Z,4.00
2019-02-28T23:37:24.184Z,3.60
2019-02-28T23:38:24.172Z,3.70
2019-02-28T23:39:24.167Z,3.80
2019-02-28T23:40:24.169Z,4.00
2019-02-28T23:41:24.148Z,3.40
2019-02-28T23:42:24.127Z,3.90
2019-02-28T23:43:24.120Z,4.10
2019-02-28T23:44:31.692Z,3.70
2019-02-28T23:45:24.149Z,3.80
2019-02-28T23:46:24.094Z,4.30
2019-02-28T23:47:24.076Z,4.50
2019-02-28T23:48:24.075Z,4.00
2019-02-28T23:49:24.056Z,4.30
2019-02-28T23:50:24.044Z,3.90
2019-02-28T23:51:24.052Z,4.40
2019-02-28T23:52:24.026Z,4.60
2019-02-28T23:53:24.051Z,4.80
2019-02-28T23:54:24.004Z,5.20
2019-02-28T23:55:23.992Z,5.00
2019-02-28T23:56:24.005Z,5.10
2019-02-28T23:57:23.975Z,5.30
2019-02-28T23:58:23.967Z,4.60
2019-02-28T23:59:23.987Z,5.00
